Time;durP1;ratioP1;P1;durP2;ratioP2;P2;SDS_P1;SDS_P2;PMS_P1;PMS_P2;Temp;Humidity;BMP_temperature;BMP_pressure;BME280_temperature;BME280_humidity;BME280_pressure;Samples;Min_cycle;Max_cycle;Signal;HPM_P1;HPM_P2
2023/01/24 00:00:31;;;;;;;2.95;1.30;;;;;;;4.47;73.22;103676.13;5054895;28;20456;-64
2023/01/24 00:02:56;;;;;;;2.85;1.40;;;;;;;4.44;73.30;103664.78;5053248;28;20483;-64
2023/01/24 00:05:22;;;;;;;3.92;1.40;;;;;;;4.57;72.91;103684.44;5053299;28;20033;-64
2023/01/24 00:07:47;;;;;;;3.85;1.33;;;;;;;4.52;72.76;103691.84;5053377;28;20094;-65
2023/01/24 00:10:13;;;;;;;4.50;1.55;;;;;;;4.47;73.03;103681.44;5054567;28;20036;-64
2023/01/24 00:12:38;;;;;;;5.97;1.73;;;;;;;4.52;73.63;103683.84;5036818;28;20035;-64
2023/01/24 00:15:05;;;;;;;3.40;1.75;;;;;;;4.48;73.89;103683.16;5053339;28;20029;-64
2023/01/24 00:17:30;;;;;;;3.75;1.60;;;;;;;4.44;74.06;103680.75;5057449;28;20511;-64
2023/01/24 00:19:56;;;;;;;3.28;1.73;;;;;;;4.42;74.06;103685.31;5035142;28;20035;-64
2023/01/24 00:22:21;;;;;;;4.78;1.83;;;;;;;4.53;74.11;103671.34;5051972;28;20024;-64
2023/01/24 00:24:48;;;;;;;4.97;1.95;;;;;;;4.48;74.23;103675.16;5052115;28;20438;-64
2023/01/24 00:27:17;;;;;;;5.60;1.80;;;;;;;4.50;73.94;103674.19;5035793;28;20040;-64
2023/01/24 00:29:42;;;;;;;7.57;2.05;;;;;;;4.55;73.71;103673.00;5053334;28;20446;-65
2023/01/24 00:32:08;;;;;;;3.65;1.77;;;;;;;4.53;73.45;103653.53;5054298;28;20114;-64
2023/01/24 00:34:34;;;;;;;2.30;1.70;;;;;;;4.58;73.76;103650.63;5057262;28;20025;-65
2023/01/24 00:36:59;;;;;;;7.22;2.13;;;;;;;4.56;74.14;103644.50;5069368;28;20036;-64
2023/01/24 00:39:24;;;;;;;3.55;2.05;;;;;;;4.58;74.36;103646.16;5049992;28;20120;-65
2023/01/24 00:41:50;;;;;;;4.55;1.90;;;;;;;4.64;74.01;103655.59;5036365;28;20043;-64
2023/01/24 00:44:15;;;;;;;3.70;2.20;;;;;;;4.59;73.90;103647.84;5055769;28;20454;-64
2023/01/24 00:46:41;;;;;;;5.65;2.05;;;;;;;4.62;74.35;103647.69;5055553;28;20041;-65
2023/01/24 00:49:07;;;;;;;3.33;2.03;;;;;;;4.67;74.10;103645.63;5053512;28;20024;-65
2023/01/24 00:51:32;;;;;;;5.72;1.80;;;;;;;4.76;73.55;103646.84;5053649;28;20053;-64
2023/01/24 00:53:58;;;;;;;6.90;2.20;;;;;;;4.66;73.72;103649.22;5052064;28;20052;-65
2023/01/24 00:56:23;;;;;;;4.05;2.28;;;;;;;4.63;73.66;103651.19;5052417;28;20016;-64
2023/01/24 00:58:49;;;;;;;4.22;2.20;;;;;;;4.71;73.82;103648.97;5051922;28;20460;-64
2023/01/24 01:01:14;;;;;;;7.63;2.55;;;;;;;4.71;73.98;103631.13;5052579;28;20056;-65
2023/01/24 01:03:40;;;;;;;3.55;2.25;;;;;;;4.69;74.46;103633.03;5054348;28;20028;-65
2023/01/24 01:06:11;;;;;;;5.00;2.35;;;;;;;4.81;74.13;103638.59;5052849;28;20102;-64
2023/01/24 01:08:37;;;;;;;5.07;2.38;;;;;;;4.63;74.61;103636.06;5051842;28;20025;-65
2023/01/24 01:11:02;;;;;;;5.78;2.53;;;;;;;4.68;74.84;103643.81;5052511;28;20032;-65
2023/01/24 01:13:28;;;;;;;7.22;3.03;;;;;;;4.69;74.38;103635.69;5052592;28;20482;-64
2023/01/24 01:16:11;;;;;;;4.90;2.80;;;;;;;4.65;74.77;103630.66;5051660;28;20025;-65
2023/01/24 01:18:37;;;;;;;4.47;2.55;;;;;;;4.76;74.13;103627.31;5051527;28;20052;-64
2023/01/24 01:21:04;;;;;;;6.05;2.70;;;;;;;4.79;74.51;103632.47;5053053;28;20024;-64
2023/01/24 01:23:29;;;;;;;5.53;2.75;;;;;;;4.77;74.56;103635.25;5052819;28;20100;-64
2023/01/24 01:26:01;;;;;;;6.20;2.83;;;;;;;4.79;74.83;103638.66;5052588;28;20583;-64
2023/01/24 01:28:27;;;;;;;4.03;2.42;;;;;;;4.66;75.29;103635.88;5051363;28;20079;-64
2023/01/24 01:30:53;;;;;;;6.18;2.55;;;;;;;4.66;75.83;103638.53;5053085;28;20021;-64
2023/01/24 01:33:19;;;;;;;5.80;3.08;;;;;;;4.78;75.31;103634.31;5052600;28;20076;-65
2023/01/24 01:35:46;;;;;;;7.93;2.85;;;;;;;4.83;74.83;103623.34;5050990;28;20033;-65
2023/01/24 01:38:11;;;;;;;7.38;3.22;;;;;;;4.86;74.82;103628.50;5051037;28;20446;-65
2023/01/24 01:40:36;;;;;;;5.28;2.65;;;;;;;4.76;75.47;103624.66;5050072;28;20044;-65
2023/01/24 01:43:02;;;;;;;5.03;2.95;;;;;;;4.77;74.95;103618.38;5033814;28;20037;-65
2023/01/24 01:45:41;;;;;;;5.20;2.60;;;;;;;4.81;75.36;103628.78;5050584;28;20060;-65
2023/01/24 01:48:42;;;;;;;4.55;2.58;;;;;;;4.80;75.48;103634.19;5051795;28;20024;-65
2023/01/24 01:51:51;;;;;;;5.25;2.85;;;;;;;4.74;75.46;103639.91;5051817;28;20421;-66
2023/01/24 01:54:25;;;;;;;5.80;2.70;;;;;;;4.61;76.42;103634.44;5052804;28;20020;-65
2023/01/24 01:57:14;;;;;;;5.40;3.28;;;;;;;4.79;76.24;103648.50;5054945;28;20021;-65
2023/01/24 01:59:46;;;;;;;6.28;2.95;;;;;;;4.77;76.04;103651.25;5073344;28;20036;-65
2023/01/24 02:02:11;;;;;;;6.75;3.42;;;;;;;4.68;76.51;103625.97;5067139;28;20021;-65
2023/01/24 02:04:41;;;;;;;7.88;3.50;;;;;;;4.85;76.07;103635.63;5051199;28;20028;-65
2023/01/24 02:07:23;;;;;;;8.32;3.42;;;;;;;4.88;76.17;103653.28;5053518;28;20037;-65
2023/01/24 02:09:52;;;;;;;5.43;3.38;;;;;;;4.91;76.26;103647.75;5054782;28;20036;-65
2023/01/24 02:12:24;;;;;;;8.60;3.40;;;;;;;4.81;76.89;103658.13;5054175;28;20025;-65
2023/01/24 02:17:50;;;;;;;6.28;3.67;;;;;;;4.83;76.53;103642.88;5052462;28;20056;-65
2023/01/24 02:20:34;;;;;;;6.78;3.53;;;;;;;4.93;76.56;103662.75;5052016;28;20024;-65
2023/01/24 02:23:24;;;;;;;8.05;4.07;;;;;;;5.04;76.16;103658.56;5052291;28;20025;-65
2023/01/24 02:25:50;;;;;;;6.70;3.83;;;;;;;5.01;76.46;103654.25;5051659;28;20080;-65
2023/01/24 02:28:16;;;;;;;5.05;3.63;;;;;;;4.89;76.24;103629.16;5049965;28;20511;-65
2023/01/24 02:30:42;;;;;;;8.60;3.97;;;;;;;5.01;76.70;103640.06;5051710;28;20064;-65
2023/01/24 02:33:19;;;;;;;8.02;4.20;;;;;;;4.93;76.92;103637.84;5051683;28;20029;-66
2023/01/24 02:35:45;;;;;;;8.30;4.10;;;;;;;4.97;76.55;103639.41;5051593;28;20108;-65
2023/01/24 02:38:31;;;;;;;10.07;4.13;;;;;;;4.93;77.21;103636.06;5051512;28;20566;-65
2023/01/24 02:41:06;;;;;;;7.53;3.88;;;;;;;4.87;77.19;103624.91;5049820;28;20081;-65
2023/01/24 02:43:36;;;;;;;8.40;4.10;;;;;;;4.93;77.76;103640.50;5051689;28;20037;-65
2023/01/24 02:46:01;;;;;;;10.98;4.47;;;;;;;4.80;78.20;103635.06;5052542;28;20013;-65
2023/01/24 02:48:27;;;;;;;8.73;4.20;;;;;;;4.93;77.83;103645.84;5052581;28;20021;-65
2023/01/24 02:53:39;;;;;;;6.45;4.30;;;;;;;4.99;77.40;103633.94;5055341;28;20190;-66
2023/01/24 02:58:51;;;;;;;6.82;4.10;;;;;;;4.99;77.95;103628.63;5055623;28;20044;-65
2023/01/24 03:01:18;;;;;;;11.07;4.47;;;;;;;5.00;77.99;103628.53;5055193;28;20040;-65
2023/01/24 03:03:45;;;;;;;7.28;4.03;;;;;;;4.80;77.77;103583.50;5054884;28;20029;-65
2023/01/24 03:06:13;;;;;;;8.25;4.63;;;;;;;4.91;78.36;103624.59;5052947;28;20128;-65
2023/01/24 03:08:39;;;;;;;8.77;4.65;;;;;;;4.79;78.52;103597.81;5055258;28;20029;-65
2023/01/24 03:11:05;;;;;;;10.30;4.95;;;;;;;4.89;79.09;103622.97;5055350;28;20036;-65
2023/01/24 03:35:24;;;;;;;8.38;4.20;;;;;;;5.01;79.39;103573.34;5058857;28;20257;-66
2023/01/24 03:40:34;;;;;;;10.05;4.55;;;;;;;5.02;80.14;103583.91;5054358;28;20047;-65
2023/01/24 03:43:01;;;;;;;9.18;4.40;;;;;;;5.06;80.00;103588.09;5053761;28;20472;-65
2023/01/24 03:45:30;;;;;;;9.15;4.30;;;;;;;5.10;80.03;103584.31;5055257;28;20353;-65
2023/01/24 03:47:59;;;;;;;9.15;4.00;;;;;;;5.06;80.65;103580.09;5055023;28;20071;-65
2023/01/24 03:53:13;;;;;;;8.00;4.00;;;;;;;4.95;80.93;103575.44;5055359;28;20039;-65
2023/01/24 03:55:38;;;;;;;10.25;4.05;;;;;;;4.91;80.59;103549.91;5054751;28;20033;-65
2023/01/24 03:58:05;;;;;;;6.90;4.22;;;;;;;5.05;81.01;103589.06;5054956;28;20035;-65
2023/01/24 04:00:30;;;;;;;9.95;4.93;;;;;;;5.16;80.52;103583.91;5037278;28;20025;-65
2023/01/24 04:02:56;;;;;;;10.52;4.30;;;;;;;5.14;80.68;103564.47;5051891;28;20040;-66
2023/01/24 04:05:22;;;;;;;7.15;4.05;;;;;;;5.16;80.75;103565.22;5053847;28;20468;-65
2023/01/24 04:07:48;;;;;;;7.78;3.92;;;;;;;5.13;81.51;103557.44;5053792;28;20379;-65
2023/01/24 04:10:14;;;;;;;13.70;4.47;;;;;;;5.14;81.36;103544.94;5053342;28;20036;-66
2023/01/24 04:12:42;;;;;;;8.65;4.25;;;;;;;5.17;81.37;103534.09;5054803;28;20103;-65
2023/01/24 04:15:12;;;;;;;8.68;4.30;;;;;;;5.00;82.38;103540.47;5054665;28;20114;-66
2023/01/24 04:17:37;;;;;;;8.00;4.60;;;;;;;5.14;82.09;103539.59;5054557;28;20075;-65
2023/01/24 04:20:04;;;;;;;9.02;4.03;;;;;;;5.17;81.99;103532.25;5054391;28;20017;-65
2023/01/24 04:22:30;;;;;;;8.10;4.65;;;;;;;5.22;81.82;103534.63;5054966;28;20032;-65
2023/01/24 04:24:55;;;;;;;8.65;3.92;;;;;;;5.12;81.77;103506.81;5036125;28;20120;-65
2023/01/24 04:27:20;;;;;;;8.65;3.92;;;;;;;5.22;82.02;103531.09;5054377;28;20037;-65
2023/01/24 04:29:46;;;;;;;7.82;3.28;;;;;;;5.17;82.72;103534.09;5054421;28;20036;-65
2023/01/24 04:32:11;;;;;;;6.38;3.60;;;;;;;5.19;82.87;103529.47;5054154;28;20045;-65
2023/01/24 04:34:37;;;;;;;7.82;3.67;;;;;;;4.90;83.60;103501.94;5052459;28;20025;-65
2023/01/24 04:37:02;;;;;;;8.07;3.60;;;;;;;5.27;82.86;103526.34;5051669;28;20543;-65
2023/01/24 04:39:28;;;;;;;8.27;3.70;;;;;;;5.29;82.08;103525.28;5052072;28;20076;-65
2023/01/24 04:41:53;;;;;;;9.77;3.47;;;;;;;5.24;82.50;103516.72;5054141;28;20033;-65
2023/01/24 04:44:19;;;;;;;7.35;3.63;;;;;;;5.27;83.16;103521.88;5052905;28;20029;-66
2023/01/24 04:46:44;;;;;;;9.77;3.40;;;;;;;4.97;82.63;103449.06;5036327;28;20072;-65
2023/01/24 04:49:09;;;;;;;10.70;4.00;;;;;;;5.36;82.31;103537.31;5052592;28;20388;-65
2023/01/24 04:51:35;;;;;;;6.13;3.08;;;;;;;5.39;82.51;103542.41;5056780;28;20025;-65
2023/01/24 04:54:00;;;;;;;14.48;4.40;;;;;;;5.37;82.93;103536.34;5054567;28;20017;-65
2023/01/24 04:56:26;;;;;;;8.25;3.38;;;;;;;5.35;82.83;103518.69;5068364;28;20035;-66
2023/01/24 04:58:51;;;;;;;11.80;3.72;;;;;;;5.36;83.60;103545.31;5055039;28;20040;-65
2023/01/24 05:01:17;;;;;;;14.82;4.30;;;;;;;5.54;82.74;103545.09;5055314;28;20037;-66
2023/01/24 05:03:42;;;;;;;9.90;4.00;;;;;;;5.54;82.41;103551.28;5055341;28;20040;-66
2023/01/24 05:06:08;;;;;;;9.43;4.25;;;;;;;5.61;82.66;103546.41;5053900;28;20079;-65
2023/01/24 05:08:33;;;;;;;9.35;4.30;;;;;;;5.46;82.42;103523.34;5053419;28;20564;-66
2023/01/24 05:11:03;;;;;;;9.90;4.53;;;;;;;5.60;82.82;103558.91;5053261;28;20032;-64
2023/01/24 05:13:29;;;;;;;7.07;3.80;;;;;;;5.61;82.88;103563.28;5053987;28;20116;-66
2023/01/24 05:15:54;;;;;;;9.10;4.55;;;;;;;5.61;83.17;103565.94;5051791;28;20245;-66
2023/01/24 05:18:20;;;;;;;14.13;4.28;;;;;;;5.51;83.16;103539.94;5052068;28;20176;-66
2023/01/24 05:20:45;;;;;;;7.82;4.57;;;;;;;5.75;82.51;103562.38;5053179;28;20024;-66
2023/01/24 05:23:11;;;;;;;10.02;4.18;;;;;;;5.72;82.73;103557.22;5051388;28;20031;-65
2023/01/24 05:25:36;;;;;;;10.00;4.47;;;;;;;5.80;82.53;103549.59;5050740;28;20455;-65
2023/01/24 05:28:02;;;;;;;14.15;4.32;;;;;;;5.84;82.37;103552.91;5052761;28;20445;-65
2023/01/24 05:30:27;;;;;;;12.13;4.38;;;;;;;5.81;82.40;103555.78;5052393;28;20029;-66
2023/01/24 05:32:57;;;;;;;9.43;4.40;;;;;;;5.76;82.62;103549.88;5053149;28;20025;-66
2023/01/24 05:35:22;;;;;;;10.73;4.68;;;;;;;5.83;82.33;103562.75;5051286;28;20029;-65
2023/01/24 05:37:48;;;;;;;9.82;4.70;;;;;;;5.83;82.54;103570.78;5052526;28;20078;-65
2023/01/24 05:40:13;;;;;;;10.65;4.80;;;;;;;5.81;82.75;103575.34;5051424;28;20033;-65
2023/01/24 05:42:42;;;;;;;10.77;4.70;;;;;;;5.87;82.80;103572.28;5051543;28;20041;-65
2023/01/24 05:45:09;;;;;;;8.23;4.55;;;;;;;5.83;82.67;103565.44;5051954;28;20067;-64
2023/01/24 05:47:34;;;;;;;12.48;4.78;;;;;;;5.84;82.52;103566.28;5052719;28;20041;-65
2023/01/24 05:50:00;;;;;;;16.05;5.00;;;;;;;5.81;82.83;103571.81;5051444;28;20037;-65
2023/01/24 05:52:25;;;;;;;13.60;4.85;;;;;;;5.86;82.46;103561.66;5052756;28;20032;-65
2023/01/24 05:54:51;;;;;;;14.95;5.32;;;;;;;5.75;83.34;103556.19;5051235;28;20028;-65
2023/01/24 05:57:17;;;;;;;8.73;5.03;;;;;;;5.84;83.21;103555.59;5052581;28;20047;-65
2023/01/24 05:59:42;;;;;;;11.20;4.80;;;;;;;5.75;83.29;103538.34;5050912;28;20055;-64
2023/01/24 06:02:08;;;;;;;11.32;5.30;;;;;;;5.87;83.26;103558.91;5051522;28;20025;-65
2023/01/24 06:04:34;;;;;;;13.60;4.65;;;;;;;5.83;83.28;103569.91;5052100;28;20025;-64
2023/01/24 06:06:59;;;;;;;11.68;5.93;;;;;;;5.82;83.22;103565.50;5050393;28;20033;-65
2023/01/24 06:09:25;;;;;;;14.98;5.50;;;;;;;5.80;83.76;103560.28;5051508;28;20416;-65
2023/01/24 06:11:50;;;;;;;17.75;5.50;;;;;;;5.87;83.46;103563.41;5050761;28;20068;-65
2023/01/24 06:14:16;;;;;;;17.10;5.28;;;;;;;5.84;83.72;103560.94;5051319;28;20033;-64
2023/01/24 06:16:43;;;;;;;11.77;5.80;;;;;;;5.92;83.34;103555.94;5052814;28;20435;-64
2023/01/24 06:19:11;;;;;;;10.95;5.05;;;;;;;5.93;83.36;103555.03;5051789;28;20037;-65
2023/01/24 06:21:44;;;;;;;14.88;5.70;;;;;;;5.80;84.06;103554.09;5067248;28;20029;-65
2023/01/24 06:24:19;;;;;;;10.85;5.53;;;;;;;5.85;84.04;103560.81;5067418;28;20029;-65
2023/01/24 06:26:46;;;;;;;12.52;5.68;;;;;;;5.81;83.81;103550.44;5056657;28;20096;-65
2023/01/24 06:29:13;;;;;;;10.52;5.40;;;;;;;5.80;84.27;103548.75;5060445;28;20037;-65
2023/01/24 06:32:04;;;;;;;15.88;6.00;;;;;;;5.75;84.46;103550.84;5056206;28;20359;-66
2023/01/24 06:35:00;;;;;;;14.55;5.95;;;;;;;5.91;84.28;103559.56;5055206;28;20025;-65
2023/01/24 06:37:32;;;;;;;15.20;6.15;;;;;;;5.90;84.25;103552.53;5056451;28;20107;-65
2023/01/24 06:39:58;;;;;;;13.98;5.55;;;;;;;5.88;83.77;103549.06;5056165;28;20471;-64
2023/01/24 06:42:23;;;;;;;15.63;5.85;;;;;;;5.92;83.90;103550.59;5053923;28;20036;-63
2023/01/24 06:44:49;;;;;;;11.13;5.60;;;;;;;5.99;83.78;103543.03;5054367;28;20052;-64
2023/01/24 06:47:15;;;;;;;13.25;6.25;;;;;;;5.97;84.00;103548.50;5055853;28;20024;-64
2023/01/24 06:49:41;;;;;;;12.05;5.90;;;;;;;5.92;83.85;103528.34;5056009;28;20036;-64
2023/01/24 06:52:07;;;;;;;10.13;5.40;;;;;;;5.85;84.27;103534.09;5055858;28;20068;-64
2023/01/24 06:54:34;;;;;;;13.13;5.65;;;;;;;5.91;84.91;103542.69;5056311;28;20021;-65
2023/01/24 06:56:59;;;;;;;11.25;5.97;;;;;;;5.96;84.20;103540.56;5055833;28;20438;-64
2023/01/24 06:59:25;;;;;;;14.30;6.40;;;;;;;5.96;84.46;103536.13;5055102;28;20169;-64
2023/01/24 07:01:50;;;;;;;13.60;6.05;;;;;;;5.91;84.64;103526.66;5054655;28;20029;-64
2023/01/24 07:04:16;;;;;;;10.18;5.63;;;;;;;5.89;84.67;103530.28;5055416;28;20033;-64
2023/01/24 07:06:42;;;;;;;13.55;6.72;;;;;;;5.95;84.45;103541.53;5055271;28;20075;-64
2023/01/24 07:09:07;;;;;;;12.60;5.82;;;;;;;5.96;84.88;103541.47;5021037;28;20395;-65
2023/01/24 07:11:33;;;;;;;11.80;6.35;;;;;;;5.97;84.53;103539.63;5055888;28;20056;-64
2023/01/24 07:13:58;;;;;;;11.80;6.10;;;;;;;5.97;84.48;103532.47;5055772;28;20064;-65
2023/01/24 07:16:23;;;;;;;15.35;6.60;;;;;;;5.99;84.71;103530.53;5054978;28;20114;-65
2023/01/24 07:18:49;;;;;;;15.95;7.38;;;;;;;5.95;84.71;103531.72;5064275;28;20048;-64
2023/01/24 07:21:15;;;;;;;14.38;6.93;;;;;;;5.84;85.40;103531.53;5058024;28;20036;-65
2023/01/24 07:23:45;;;;;;;12.95;6.63;;;;;;;5.84;85.45;103539.56;5052653;28;20037;-64
2023/01/24 07:26:11;;;;;;;11.63;6.90;;;;;;;5.86;85.58;103553.66;5052548;28;20029;-64
2023/01/24 07:28:37;;;;;;;16.13;7.43;;;;;;;5.69;85.59;103516.50;5054510;28;20040;-64
2023/01/24 07:31:03;;;;;;;15.07;6.72;;;;;;;5.92;85.35;103542.56;5054642;28;20112;-64
2023/01/24 07:33:29;;;;;;;12.23;6.97;;;;;;;5.97;85.25;103548.50;5054170;28;20479;-64
2023/01/24 07:35:54;;;;;;;17.63;7.80;;;;;;;6.02;84.75;103549.03;5054462;28;20040;-65
2023/01/24 07:38:20;;;;;;;12.95;6.93;;;;;;;5.94;85.29;103548.72;5054404;28;20369;-65
2023/01/24 07:40:45;;;;;;;16.35;7.50;;;;;;;5.86;86.11;103549.19;5054589;28;20033;-64
2023/01/24 07:43:11;;;;;;;17.33;7.90;;;;;;;5.97;85.37;103547.66;5053586;28;20037;-65
2023/01/24 07:45:38;;;;;;;14.45;7.80;;;;;;;6.03;85.05;103547.25;5054270;28;20112;-64
2023/01/24 07:48:05;;;;;;;14.00;7.70;;;;;;;6.00;85.37;103544.78;5054390;28;20104;-65
2023/01/24 07:50:31;;;;;;;17.48;7.80;;;;;;;6.07;85.37;103551.44;5054506;28;20546;-66
2023/01/24 07:52:57;;;;;;;14.55;7.43;;;;;;;6.00;85.34;103550.13;5053864;28;20112;-66
2023/01/24 07:55:24;;;;;;;15.70;7.70;;;;;;;6.10;85.38;103551.22;5053521;28;20041;-65
2023/01/24 07:57:50;;;;;;;19.48;8.15;;;;;;;6.05;85.34;103551.53;5052527;28;20155;-65
2023/01/24 08:00:16;;;;;;;15.23;8.68;;;;;;;6.12;85.55;103549.28;5054323;28;20357;-65
2023/01/24 08:02:42;;;;;;;15.18;8.02;;;;;;;6.07;85.62;103567.47;5054084;28;20051;-65
2023/01/24 08:05:08;;;;;;;21.70;7.80;;;;;;;6.08;85.57;103555.81;5054224;28;20032;-65
2023/01/24 08:07:33;;;;;;;18.95;8.00;;;;;;;5.99;86.37;103557.25;5056994;28;20020;-65
2023/01/24 08:09:59;;;;;;;12.90;7.60;;;;;;;5.99;86.21;103553.75;5054277;28;20072;-65
2023/01/24 08:12:24;;;;;;;16.85;7.97;;;;;;;5.99;86.29;103562.59;5063437;28;20058;-65
2023/01/24 08:14:50;;;;;;;18.63;8.38;;;;;;;6.09;85.78;103563.75;5053579;28;20039;-65
2023/01/24 08:17:15;;;;;;;19.38;8.10;;;;;;;6.18;85.43;103561.41;5011389;28;1172929;-65
2023/01/24 08:19:41;;;;;;;16.75;7.40;;;;;;;6.10;86.18;103549.41;5054835;28;20044;-65
2023/01/24 08:22:06;;;;;;;18.23;8.07;;;;;;;6.10;86.11;103556.56;5054532;28;20060;-65
2023/01/24 08:24:32;;;;;;;18.85;8.00;;;;;;;6.09;86.50;103561.06;5054613;28;20033;-65
2023/01/24 08:26:59;;;;;;;16.13;8.10;;;;;;;6.09;86.67;103558.41;5056636;28;20056;-65
2023/01/24 08:29:25;;;;;;;20.20;8.60;;;;;;;6.05;86.79;103564.03;5053569;28;20036;-64
2023/01/24 08:31:51;;;;;;;16.13;8.13;;;;;;;5.95;86.93;103539.72;5036815;28;20024;-64
2023/01/24 08:34:16;;;;;;;16.98;8.07;;;;;;;6.02;87.19;103546.38;5053244;28;20029;-65
2023/01/24 08:36:42;;;;;;;17.30;8.07;;;;;;;5.94;87.44;103531.81;5053350;28;20570;-65
2023/01/24 08:39:07;;;;;;;18.15;8.38;;;;;;;6.00;86.78;103547.47;5053036;28;20074;-64
2023/01/24 08:41:33;;;;;;;20.65;8.75;;;;;;;6.10;87.19;103568.13;5052713;28;20025;-64
2023/01/24 08:43:58;;;;;;;15.10;8.07;;;;;;;5.98;86.64;103547.53;5052530;28;20051;-64
2023/01/24 08:46:23;;;;;;;15.02;8.05;;;;;;;6.24;86.78;103561.00;5053527;28;20029;-64
2023/01/24 08:48:49;;;;;;;24.83;8.18;;;;;;;6.35;85.72;103582.50;5052672;28;20383;-65
2023/01/24 08:51:14;;;;;;;17.65;8.55;;;;;;;6.19;85.78;103549.72;5053818;28;20029;-64
2023/01/24 08:53:40;;;;;;;17.45;8.70;;;;;;;6.32;86.29;103574.69;5052635;28;20395;-66
2023/01/24 08:56:06;;;;;;;19.58;9.23;;;;;;;6.31;86.28;103573.84;5051184;28;20029;-64
2023/01/24 08:58:33;;;;;;;17.70;8.55;;;;;;;6.34;86.35;103570.97;5035638;28;20036;-65
2023/01/24 09:00:59;;;;;;;17.63;8.73;;;;;;;6.20;86.59;103551.47;5052339;28;20028;-65
2023/01/24 09:03:26;;;;;;;19.08;8.50;;;;;;;6.33;86.22;103555.88;5053546;28;20052;-64
2023/01/24 09:06:01;;;;;;;19.30;8.68;;;;;;;6.26;87.02;103537.69;5053749;28;20083;-64
2023/01/24 09:08:27;;;;;;;21.13;8.48;;;;;;;6.34;86.67;103562.09;5052168;28;20028;-65
2023/01/24 09:10:52;;;;;;;21.08;9.20;;;;;;;6.14;87.07;103519.78;5051392;28;20037;-65
2023/01/24 09:13:18;;;;;;;19.00;9.18;;;;;;;6.27;87.08;103558.97;5053820;28;20466;-65
2023/01/24 09:15:43;;;;;;;20.73;8.93;;;;;;;6.21;87.63;103556.69;5052313;28;20036;-64
2023/01/24 09:18:09;;;;;;;22.30;9.98;;;;;;;6.17;87.21;103528.47;5051739;28;20049;-65
2023/01/24 09:20:35;;;;;;;18.77;9.25;;;;;;;6.31;87.32;103544.41;5052426;28;20033;-65
2023/01/24 09:23:08;;;;;;;15.38;8.95;;;;;;;6.40;86.85;103542.97;5051638;28;20132;-65
2023/01/24 09:25:34;;;;;;;19.23;9.05;;;;;;;6.35;87.01;103539.72;5052270;28;20028;-65
2023/01/24 09:27:59;;;;;;;19.27;9.23;;;;;;;6.47;86.72;103540.72;5052214;28;20376;-65
2023/01/24 09:30:25;;;;;;;19.17;9.07;;;;;;;6.53;87.01;103542.97;5055511;28;20129;-65
2023/01/24 09:32:50;;;;;;;16.63;9.10;;;;;;;6.55;86.64;103539.22;5057993;28;20095;-65
2023/01/24 09:35:16;;;;;;;24.98;9.32;;;;;;;6.47;87.37;103546.91;5052750;28;20044;-66
2023/01/24 09:37:42;;;;;;;17.33;9.82;;;;;;;6.44;87.46;103532.91;5053650;28;20029;-65
2023/01/24 09:40:29;;;;;;;15.48;9.70;;;;;;;6.56;87.67;103538.28;5053297;28;20033;-65
2023/01/24 09:43:11;;;;;;;18.10;9.52;;;;;;;6.35;87.55;103495.09;5051532;28;20032;-65
2023/01/24 09:45:49;;;;;;;18.85;9.68;;;;;;;6.45;87.36;103503.34;5053819;28;20025;-65
2023/01/24 09:48:18;;;;;;;17.13;9.18;;;;;;;6.61;87.23;103523.72;5051868;28;20033;-65
2023/01/24 09:50:57;;;;;;;18.30;9.55;;;;;;;6.64;87.58;103516.31;5053202;28;20064;-66
2023/01/24 09:53:29;;;;;;;16.45;8.95;;;;;;;6.65;86.98;103511.81;5053420;28;20025;-65
2023/01/24 09:55:55;;;;;;;20.33;9.82;;;;;;;6.72;86.80;103505.06;5055187;28;20029;-64
2023/01/24 09:58:30;;;;;;;21.63;9.73;;;;;;;6.75;86.85;103519.09;5052935;28;20116;-65
2023/01/24 10:00:59;;;;;;;19.13;9.93;;;;;;;6.75;86.48;103508.41;5051207;28;20102;-65
2023/01/24 10:03:26;;;;;;;18.58;10.07;;;;;;;6.77;86.77;103511.81;5053153;28;20028;-65
2023/01/24 10:05:58;;;;;;;19.50;9.40;;;;;;;6.71;87.40;103516.75;5052304;28;20071;-65
2023/01/24 10:08:35;;;;;;;14.90;9.50;;;;;;;6.78;87.37;103510.84;5053904;28;20039;-63
2023/01/24 10:11:18;;;;;;;14.63;9.52;;;;;;;6.76;86.87;103509.28;5053502;28;20361;-65
2023/01/24 10:14:18;;;;;;;18.80;10.00;;;;;;;6.82;86.80;103514.16;5052772;28;20405;-64
2023/01/24 10:17:34;;;;;;;23.33;9.40;;;;;;;6.86;86.92;103518.38;5051316;28;20071;-64
2023/01/24 10:19:59;;;;;;;;;;;;;;;6.86;87.24;103514.84;5035186;28;20037;-64
2023/01/24 10:23:01;;;;;;;19.05;8.88;;;;;;;6.90;86.65;103519.00;5051687;28;20339;-64
2023/01/24 10:25:35;;;;;;;15.93;9.32;;;;;;;6.89;86.65;103512.81;5050890;28;20416;-64
2023/01/24 10:28:02;;;;;;;23.73;10.20;;;;;;;6.73;86.78;103504.13;5051440;28;20024;-66
2023/01/24 10:30:40;;;;;;;18.45;9.10;;;;;;;6.58;88.21;103509.56;5051386;28;20031;-66
2023/01/24 10:33:15;;;;;;;17.98;9.05;;;;;;;6.75;87.87;103510.22;5052658;28;20399;-66
2023/01/24 10:35:50;;;;;;;14.77;8.73;;;;;;;6.84;87.56;103504.22;5051446;28;20067;-64
2023/01/24 10:38:18;;;;;;;17.73;9.80;;;;;;;6.80;87.83;103503.59;5050902;28;20040;-64
2023/01/24 10:40:56;;;;;;;18.58;9.50;;;;;;;6.92;87.03;103488.50;5052368;28;20707;-64
2023/01/24 10:43:30;;;;;;;14.93;7.70;;;;;;;6.90;87.19;103495.75;5052208;28;20056;-65
2023/01/24 10:46:33;;;;;;;16.17;9.43;;;;;;;6.92;87.53;103496.53;5050623;28;20022;-64
2023/01/24 10:49:01;;;;;;;16.75;9.35;;;;;;;6.97;87.13;103498.88;5052058;28;20506;-64
2023/01/24 10:51:27;;;;;;;19.02;9.68;;;;;;;6.95;87.29;103485.56;5052317;28;20103;-64
2023/01/24 10:54:16;;;;;;;23.15;9.70;;;;;;;6.99;87.23;103502.28;5051184;28;20491;-64
2023/01/24 10:56:41;;;;;;;18.23;9.55;;;;;;;6.97;87.17;103483.66;5051350;28;20047;-64
2023/01/24 10:59:12;;;;;;;16.60;10.02;;;;;;;6.74;87.13;103453.16;5055825;28;20025;-64
2023/01/24 11:01:48;;;;;;;23.40;9.63;;;;;;;6.54;87.24;103413.59;5055177;28;20029;-65
2023/01/24 11:04:20;;;;;;;18.30;10.52;;;;;;;6.89;87.21;103482.47;5052179;28;20131;-64
2023/01/24 11:06:48;;;;;;;21.58;10.20;;;;;;;6.88;87.63;103478.94;5053162;28;20107;-65
2023/01/24 11:09:24;;;;;;;22.15;10.50;;;;;;;6.90;87.74;103476.19;5052477;28;20029;-65
2023/01/24 11:11:52;;;;;;;21.20;9.95;;;;;;;6.84;87.86;103474.78;5055712;28;20029;-65
2023/01/24 11:14:21;;;;;;;21.60;11.00;;;;;;;6.89;87.39;103467.28;5054216;28;20051;-65
2023/01/24 11:16:50;;;;;;;18.88;9.73;;;;;;;6.80;87.45;103441.19;5054429;28;20112;-65
2023/01/24 11:19:29;;;;;;;17.45;10.18;;;;;;;7.00;87.62;103480.75;5054195;28;20057;-65
2023/01/24 11:21:58;;;;;;;17.75;9.60;;;;;;;7.00;87.89;103485.25;5054125;28;20076;-65
2023/01/24 11:24:23;;;;;;;19.67;10.10;;;;;;;7.00;87.50;103475.41;5055549;28;20105;-64
2023/01/24 11:27:04;;;;;;;19.73;10.27;;;;;;;7.00;87.80;103480.75;5055476;28;20111;-65
2023/01/24 11:29:34;;;;;;;25.80;10.73;;;;;;;7.13;87.02;103475.38;5055648;28;20025;-65
2023/01/24 11:32:21;;;;;;;22.27;11.02;;;;;;;7.14;87.01;103465.53;5055189;28;20025;-65
2023/01/24 11:35:32;;;;;;;19.85;9.52;;;;;;;7.11;87.46;103466.59;5055362;28;20469;-65
2023/01/24 11:38:19;;;;;;;19.85;10.02;;;;;;;7.14;87.55;103465.53;5054832;28;20079;-64
2023/01/24 11:40:52;;;;;;;20.58;9.77;;;;;;;7.17;87.69;103457.25;5054928;28;20082;-65
2023/01/24 11:43:25;;;;;;;18.67;10.07;;;;;;;7.19;87.87;103458.03;5055191;28;20095;-64
2023/01/24 11:46:09;;;;;;;19.73;10.13;;;;;;;7.21;87.13;103456.06;5055351;28;20040;-64
2023/01/24 11:48:56;;;;;;;24.17;10.52;;;;;;;7.22;87.33;103441.72;5054566;28;20407;-64
2023/01/24 11:51:40;;;;;;;21.77;11.30;;;;;;;7.41;86.94;103457.28;5054581;28;20440;-65
2023/01/24 11:54:11;;;;;;;18.25;10.45;;;;;;;7.42;86.90;103459.00;5053880;28;20055;-64
2023/01/24 11:56:45;;;;;;;26.90;10.57;;;;;;;7.47;86.76;103457.69;5054837;28;20025;-65
2023/01/24 11:59:39;;;;;;;20.27;9.70;;;;;;;7.42;87.07;103445.63;5055225;28;20036;-64
2023/01/24 12:02:23;;;;;;;22.42;9.15;;;;;;;7.44;86.97;103438.31;5054968;28;20032;-64
2023/01/24 12:04:51;;;;;;;24.38;10.32;;;;;;;7.53;86.88;103433.13;5056886;28;20017;-65
2023/01/24 12:07:19;;;;;;;19.05;9.55;;;;;;;7.62;86.49;103444.13;5056979;28;20029;-64
2023/01/24 12:09:54;;;;;;;31.50;11.35;;;;;;;7.64;86.58;103448.38;5054837;28;20025;-64
2023/01/24 12:12:43;;;;;;;18.17;10.82;;;;;;;7.55;87.00;103435.69;5054575;28;20057;-65